Time;durP1;ratioP1;P1;durP2;ratioP2;P2;SDS_P1;SDS_P2;PMS_P1;PMS_P2;Temp;Humidity;BMP_temperature;BMP_pressure;BME280_temperature;BME280_humidity;BME280_pressure;Samples;Min_cycle;Max_cycle;Signal;HPM_P1;HPM_P2
2022/03/19 00:00:05;;;;;;;52.80;45.30;;;;;;;-2.97;39.86;100246.27;105635;1279;22554;-76
2022/03/19 00:03:02;;;;;;;49.50;43.20;;;;;;;-3.06;40.48;100246.57;105396;1279;22625;-77
2022/03/19 00:05:31;;;;;;;49.70;43.70;;;;;;;-3.06;40.84;100244.86;105702;1279;22590;-76
2022/03/19 00:08:00;;;;;;;48.50;43.30;;;;;;;-3.03;41.04;100242.25;105659;1279;25688;-76
2022/03/19 00:10:28;;;;;;;47.50;42.30;;;;;;;-2.99;41.13;100235.65;105868;1279;22537;-76
2022/03/19 00:12:58;;;;;;;51.30;42.30;;;;;;;-2.96;40.65;100233.78;105706;1280;22541;-76
2022/03/19 00:15:26;;;;;;;46.00;39.80;;;;;;;-2.93;40.75;100230.93;105608;1279;26673;-77
2022/03/19 00:17:57;;;;;;;44.70;40.00;;;;;;;-2.97;40.64;100230.63;105840;1279;22686;-79
2022/03/19 00:20:24;;;;;;;60.50;41.20;;;;;;;-3.09;40.77;100236.86;106168;1279;22859;-76
2022/03/19 00:22:52;;;;;;;47.00;42.00;;;;;;;-3.20;40.83;100238.17;105741;1279;24394;-75
2022/03/19 00:25:20;;;;;;;50.50;43.40;;;;;;;-3.32;40.89;100236.69;105502;1280;25487;-76
2022/03/19 00:27:48;;;;;;;45.20;40.70;;;;;;;-3.40;41.10;100242.09;105821;1279;24458;-77
2022/03/19 00:30:16;;;;;;;46.20;41.30;;;;;;;-3.49;41.12;100241.85;105793;1279;25429;-77
2022/03/19 00:32:44;;;;;;;48.20;43.10;;;;;;;-3.54;41.32;100241.02;105670;1279;22708;-76
2022/03/19 00:35:12;;;;;;;53.20;47.70;;;;;;;-3.61;41.38;100243.61;105682;1279;23391;-76
2022/03/19 00:37:43;;;;;;;57.20;50.20;;;;;;;-3.65;41.90;100240.83;105749;1279;22559;-76
2022/03/19 00:40:12;;;;;;;72.10;57.70;;;;;;;-3.66;42.49;100238.61;105754;1279;22775;-78
2022/03/19 00:42:41;;;;;;;86.50;65.50;;;;;;;-3.65;42.04;100230.48;105892;1279;22677;-77
2022/03/19 00:45:10;;;;;;;69.60;58.70;;;;;;;-3.62;41.79;100229.33;105716;1280;24394;-75
2022/03/19 00:47:38;;;;;;;66.10;58.90;;;;;;;-3.61;41.75;100225.35;105320;1280;22836;-76
2022/03/19 00:50:07;;;;;;;71.40;63.90;;;;;;;-3.57;41.84;100222.36;105360;1279;22694;-76
2022/03/19 00:52:35;;;;;;;69.60;61.80;;;;;;;-3.53;41.74;100222.23;105304;1279;23019;-76
2022/03/19 00:55:04;;;;;;;73.00;64.40;;;;;;;-3.49;41.93;100217.23;105349;1280;22756;-78
2022/03/19 00:57:46;;;;;;;63.00;56.40;;;;;;;-3.46;41.92;100212.09;105633;1279;24141;-78
2022/03/19 01:00:19;;;;;;;70.50;59.70;;;;;;;-3.49;42.03;100207.95;105626;1279;25408;-77
2022/03/19 01:02:47;;;;;;;59.90;53.50;;;;;;;-3.56;41.92;100207.68;105642;1279;22932;-75
2022/03/19 01:05:16;;;;;;;64.50;56.50;;;;;;;-3.68;42.08;100210.73;105583;1280;25351;-79
2022/03/19 01:07:49;;;;;;;73.70;60.90;;;;;;;-3.74;42.12;100208.64;105968;1279;22574;-78
2022/03/19 01:10:21;;;;;;;84.10;66.10;;;;;;;-3.77;42.39;100211.27;105368;1283;25464;-77
2022/03/19 01:12:50;;;;;;;90.80;66.20;;;;;;;-3.79;42.51;100206.32;105973;1279;22759;-76
2022/03/19 01:15:18;;;;;;;90.80;67.70;;;;;;;-3.80;42.44;100204.20;105660;1279;24386;-76
2022/03/19 01:17:46;;;;;;;80.80;62.30;;;;;;;-3.82;42.47;100199.66;105650;1279;25500;-76
2022/03/19 01:20:16;;;;;;;68.40;60.90;;;;;;;-3.85;42.41;100199.38;105500;1279;25506;-77
2022/03/19 01:22:46;;;;;;;79.70;63.10;;;;;;;-3.91;42.31;100197.63;105401;1280;22680;-75
2022/03/19 01:25:16;;;;;;;81.30;67.00;;;;;;;-4.01;42.29;100197.84;105327;1277;427852;-77
2022/03/19 01:27:46;;;;;;;93.50;68.10;;;;;;;-4.14;42.50;100200.44;105653;1279;22562;-77
2022/03/19 01:30:17;;;;;;;94.00;70.40;;;;;;;-4.26;42.90;100202.61;105551;1280;25494;-77
2022/03/19 01:32:46;;;;;;;117.50;75.10;;;;;;;-4.36;42.98;100207.06;105696;1279;22700;-77
2022/03/19 01:35:16;;;;;;;123.60;79.20;;;;;;;-4.42;43.91;100210.11;105600;1282;22675;-78
2022/03/19 01:37:44;;;;;;;107.80;75.40;;;;;;;-4.43;44.19;100212.36;106099;1282;22768;-80
2022/03/19 01:40:14;;;;;;;86.60;70.80;;;;;;;-4.43;44.61;100207.89;105769;1279;25114;-79
2022/03/19 01:42:47;;;;;;;75.60;65.30;;;;;;;-4.39;45.29;100208.30;106485;1280;24229;-79
2022/03/19 01:45:21;;;;;;;76.80;62.60;;;;;;;-4.34;45.54;100209.55;106364;1279;25536;-78
2022/03/19 01:47:50;;;;;;;72.20;61.40;;;;;;;-4.27;45.01;100208.41;106334;1279;23377;-77
2022/03/19 01:50:20;;;;;;;87.70;69.40;;;;;;;-4.21;45.05;100206.73;105635;1279;25380;-77
2022/03/19 01:52:48;;;;;;;74.30;63.40;;;;;;;-4.17;44.62;100204.45;105716;1279;22706;-76
2022/03/19 01:55:21;;;;;;;67.10;60.20;;;;;;;-4.20;44.48;100199.74;105611;1280;22873;-78
2022/03/19 01:57:50;;;;;;;70.00;57.70;;;;;;;-4.22;44.79;100200.88;105865;1279;23314;-78
2022/03/19 02:00:22;;;;;;;65.10;58.20;;;;;;;-4.23;45.41;100196.38;105796;1280;24398;-77
2022/03/19 02:02:52;;;;;;;63.40;56.60;;;;;;;-4.27;44.67;100192.06;105774;1279;23364;-77
2022/03/19 02:05:24;;;;;;;62.30;55.90;;;;;;;-4.35;44.09;100195.06;106457;1279;25470;-76
2022/03/19 02:07:53;;;;;;;67.20;60.30;;;;;;;-4.43;44.01;100194.23;105517;1279;24016;-76
2022/03/19 02:10:26;;;;;;;65.60;58.90;;;;;;;-4.47;44.26;100194.11;105556;1280;25513;-76
2022/03/19 02:12:55;;;;;;;67.30;53.80;;;;;;;-4.47;44.67;100194.64;105559;1279;23347;-77
2022/03/19 02:15:23;;;;;;;57.70;52.00;;;;;;;-4.45;44.86;100190.39;105655;1279;22556;-76
2022/03/19 02:17:52;;;;;;;81.40;73.70;;;;;;;-4.41;44.93;100183.67;105731;1279;25302;-75
2022/03/19 02:20:20;;;;;;;64.60;57.60;;;;;;;-4.34;44.70;100181.29;105836;1279;24282;-76
2022/03/19 02:25:37;;;;;;;60.50;54.10;;;;;;;-4.23;44.46;100185.53;105838;1279;24473;-77
2022/03/19 02:28:05;;;;;;;60.40;54.60;;;;;;;-4.30;44.58;100189.16;106430;1279;25390;-75
2022/03/19 02:30:38;;;;;;;57.50;51.80;;;;;;;-4.43;45.04;100195.51;105525;1280;25438;-73
2022/03/19 02:33:06;;;;;;;59.30;53.20;;;;;;;-4.52;44.96;100192.31;106076;1280;22791;-75
2022/03/19 02:35:34;;;;;;;61.00;55.00;;;;;;;-4.60;45.24;100193.23;105648;1279;24283;-76
2022/03/19 02:38:02;;;;;;;61.50;55.30;;;;;;;-4.64;45.31;100195.38;105665;1279;24322;-76
2022/03/19 02:40:30;;;;;;;58.10;52.40;;;;;;;-4.63;45.64;100192.13;105656;1279;25494;-76
2022/03/19 02:42:58;;;;;;;59.70;53.90;;;;;;;-4.62;45.63;100187.56;105501;1279;22663;-76
2022/03/19 02:45:26;;;;;;;59.60;53.80;;;;;;;-4.59;45.10;100186.79;105634;1279;24288;-75
2022/03/19 02:47:57;;;;;;;59.80;54.10;;;;;;;-4.56;45.20;100188.29;105641;1279;22573;-76
2022/03/19 02:50:35;;;;;;;61.20;55.20;;;;;;;-4.55;45.27;100186.09;105626;1279;24251;-76
2022/03/19 02:53:08;;;;;;;65.70;58.70;;;;;;;-4.58;45.32;100186.33;105662;1279;22667;-81
2022/03/19 02:55:39;;;;;;;70.10;60.10;;;;;;;-4.59;45.51;100192.00;105897;1279;24473;-76
2022/03/19 02:58:09;;;;;;;75.50;67.00;;;;;;;-4.61;45.31;100192.45;105705;1280;24403;-77
2022/03/19 03:00:38;;;;;;;74.90;67.00;;;;;;;-4.60;45.30;100191.61;105679;1280;24278;-77
2022/03/19 03:03:07;;;;;;;78.90;69.70;;;;;;;-4.59;45.36;100186.25;105641;1279;22744;-77
2022/03/19 03:05:36;;;;;;;78.00;69.10;;;;;;;-4.57;45.39;100190.46;105351;1280;22734;-75
2022/03/19 03:08:04;;;;;;;62.70;56.70;;;;;;;-4.56;45.68;100188.46;105621;1279;24247;-77
2022/03/19 03:10:33;;;;;;;75.20;67.10;;;;;;;-4.62;45.76;100195.16;105922;1279;26747;-78
2022/03/19 03:13:01;;;;;;;74.20;66.50;;;;;;;-4.66;46.02;100191.64;105725;1280;24470;-77
2022/03/19 03:15:30;;;;;;;103.50;79.90;;;;;;;-4.67;46.08;100190.85;105708;1279;22616;-77
2022/03/19 03:17:58;;;;;;;137.20;97.30;;;;;;;-4.65;46.12;100188.20;106451;1279;22738;-76
2022/03/19 03:20:26;;;;;;;116.00;84.50;;;;;;;-4.61;46.31;100184.05;105921;1279;23645;-77
2022/03/19 03:22:54;;;;;;;91.60;77.30;;;;;;;-4.58;45.81;100178.80;105893;1279;22764;-77
2022/03/19 03:25:22;;;;;;;91.40;75.50;;;;;;;-4.59;45.93;100178.35;106696;1279;26661;-77
2022/03/19 03:27:51;;;;;;;80.40;71.90;;;;;;;-4.61;45.84;100176.48;105668;1279;22550;-77
2022/03/19 03:30:20;;;;;;;73.10;65.10;;;;;;;-4.68;45.80;100173.61;105692;1279;22696;-77
2022/03/19 03:32:49;;;;;;;69.90;62.50;;;;;;;-4.84;45.73;100171.23;105694;1279;22598;-78
2022/03/19 03:35:17;;;;;;;78.80;67.40;;;;;;;-4.99;46.11;100174.91;105962;1279;22714;-77
2022/03/19 03:37:45;;;;;;;82.50;73.10;;;;;;;-5.06;46.63;100174.70;105745;1279;22554;-78
2022/03/19 03:40:13;;;;;;;80.00;71.40;;;;;;;-5.08;46.57;100179.30;105725;1281;22582;-78
2022/03/19 03:42:41;;;;;;;97.70;77.10;;;;;;;-5.09;46.63;100183.44;105912;1279;22762;-77
2022/03/19 03:45:10;;;;;;;133.60;93.80;;;;;;;-5.09;46.77;100181.67;105872;1279;25341;-78
2022/03/19 03:47:38;;;;;;;106.30;82.20;;;;;;;-5.08;46.96;100182.78;105524;1279;22886;-78
2022/03/19 03:50:07;;;;;;;116.80;83.20;;;;;;;-5.05;47.10;100180.45;105619;1282;25492;-77
2022/03/19 03:52:36;;;;;;;114.10;86.10;;;;;;;-5.03;47.13;100183.02;105479;1280;25430;-79
2022/03/19 03:55:06;;;;;;;109.20;81.40;;;;;;;-5.00;47.25;100185.08;105919;1279;25383;-81
2022/03/19 03:57:35;;;;;;;95.90;80.50;;;;;;;-5.00;46.96;100181.89;105785;1279;22560;-78
2022/03/19 04:00:05;;;;;;;78.20;69.00;;;;;;;-4.99;47.32;100183.69;105706;1279;25308;-79
2022/03/19 04:02:39;;;;;;;102.00;70.70;;;;;;;-5.10;46.80;100182.23;105678;1279;22559;-78
2022/03/19 04:05:08;;;;;;;78.80;67.50;;;;;;;-5.25;46.81;100189.84;105941;1279;22584;-77
2022/03/19 04:07:36;;;;;;;80.50;71.80;;;;;;;-5.38;47.11;100192.20;105612;1279;23078;-76
2022/03/19 04:10:05;;;;;;;88.50;77.00;;;;;;;-5.41;47.93;100190.21;105356;1280;25495;-77
2022/03/19 04:12:35;;;;;;;91.10;77.60;;;;;;;-5.40;48.01;100192.00;105721;1280;22818;-77
2022/03/19 04:15:05;;;;;;;117.70;86.70;;;;;;;-5.36;47.95;100189.55;105354;1280;24451;-76
2022/03/19 04:17:33;;;;;;;88.20;75.00;;;;;;;-5.32;48.09;100196.33;105850;1279;22556;-77
2022/03/19 04:20:03;;;;;;;92.10;73.60;;;;;;;-5.35;47.54;100205.02;105628;1280;22560;-77
2022/03/19 04:22:42;;;;;;;88.00;74.50;;;;;;;-5.48;47.52;100207.08;105581;1279;22596;-78
2022/03/19 04:25:14;;;;;;;83.50;74.40;;;;;;;-5.60;47.86;100208.38;105895;1279;25415;-78
2022/03/19 04:27:45;;;;;;;102.20;78.40;;;;;;;-5.63;48.70;100201.79;105569;1283;22580;-76
2022/03/19 04:30:14;;;;;;;99.00;80.40;;;;;;;-5.57;48.68;100202.13;105705;1279;23224;-77
2022/03/19 04:32:45;;;;;;;99.80;80.40;;;;;;;-5.46;48.67;100205.39;105941;1280;24251;-78
2022/03/19 04:38:08;;;;;;;111.60;81.00;;;;;;;-5.23;48.01;100209.11;105611;1279;25550;-77
2022/03/19 04:40:37;;;;;;;78.90;66.80;;;;;;;-5.16;48.35;100205.94;105591;1279;22562;-77
2022/03/19 04:43:07;;;;;;;74.70;66.60;;;;;;;-5.12;48.46;100204.23;105729;1279;22712;-78
2022/03/19 04:45:36;;;;;;;77.70;65.20;;;;;;;-5.15;48.75;100205.52;105893;1279;22559;-77
2022/03/19 04:48:05;;;;;;;70.40;62.70;;;;;;;-5.17;48.57;100205.31;105606;1279;25439;-75
2022/03/19 04:50:43;;;;;;;68.80;61.50;;;;;;;-5.18;48.91;100208.98;105722;1280;22559;-77
2022/03/19 04:53:13;;;;;;;73.00;62.70;;;;;;;-5.19;49.13;100211.70;105589;1280;22649;-76
2022/03/19 04:55:41;;;;;;;73.80;66.10;;;;;;;-5.19;49.85;100216.58;105948;1279;22712;-77
2022/03/19 04:58:09;;;;;;;72.70;63.60;;;;;;;-5.16;50.47;100214.58;105613;1280;22563;-77
2022/03/19 05:00:37;;;;;;;71.90;63.60;;;;;;;-5.12;50.68;100214.52;105398;1280;22733;-77
2022/03/19 05:03:07;;;;;;;66.70;60.10;;;;;;;-5.08;51.08;100213.65;105571;1280;25027;-78
2022/03/19 05:05:35;;;;;;;109.10;77.60;;;;;;;-5.06;50.58;100213.77;105602;1280;22562;-77
2022/03/19 05:08:05;;;;;;;161.10;97.00;;;;;;;-5.03;50.05;100214.07;105680;1279;25367;-77
2022/03/19 05:13:20;;;;;;;74.20;66.90;;;;;;;-4.94;49.45;100214.07;105749;1280;24513;-78
2022/03/19 05:15:48;;;;;;;71.50;64.30;;;;;;;-4.92;49.00;100210.98;105855;1279;25377;-75
2022/03/19 05:18:16;;;;;;;64.00;57.60;;;;;;;-5.02;48.66;100213.12;105693;1280;25014;-76
2022/03/19 05:20:44;;;;;;;64.30;57.80;;;;;;;-5.13;48.78;100215.82;105671;1279;26379;-76
2022/03/19 05:23:13;;;;;;;68.00;61.10;;;;;;;-5.16;48.94;100215.04;105638;1280;24244;-76
2022/03/19 05:25:41;;;;;;;70.80;63.20;;;;;;;-5.13;48.94;100211.09;105614;1280;25258;-76
2022/03/19 05:28:09;;;;;;;64.40;58.00;;;;;;;-5.08;49.13;100207.84;105676;1281;23079;-77
2022/03/19 05:30:54;;;;;;;64.60;57.80;;;;;;;-5.01;49.12;100208.08;105910;1280;26741;-77
2022/03/19 05:34:29;;;;;;;65.40;58.60;;;;;;;-4.91;49.15;100208.19;105636;1281;22604;-77
2022/03/19 05:36:10;;;;;;;69.20;59.10;;;;;;;-4.76;49.14;100211.89;105567;1282;22731;-77
2022/03/19 05:38:39;;;;;;;65.60;57.10;;;;;;;-4.63;48.95;100216.63;105304;1282;23154;-77
2022/03/19 05:41:07;;;;;;;61.60;54.80;;;;;;;-4.50;49.04;100221.78;105753;1281;24451;-77
2022/03/19 05:43:35;;;;;;;80.10;66.40;;;;;;;-4.37;48.87;100219.35;105672;1281;24253;-77
2022/03/19 05:46:03;;;;;;;63.30;56.00;;;;;;;-4.25;48.88;100220.41;105907;1280;22583;-77
2022/03/19 05:48:32;;;;;;;58.30;52.40;;;;;;;-4.13;48.62;100220.35;105924;1280;22655;-77
2022/03/19 05:51:01;;;;;;;60.60;54.30;;;;;;;-4.02;48.81;100216.30;105714;1281;22694;-76
2022/03/19 05:53:34;;;;;;;65.60;53.20;;;;;;;-3.89;49.01;100215.73;105320;1281;22701;-78
2022/03/19 05:56:05;;;;;;;61.20;54.70;;;;;;;-3.76;48.96;100214.48;105930;1280;22698;-78
2022/03/19 05:58:33;;;;;;;56.00;50.20;;;;;;;-3.62;48.90;100212.83;105918;1279;25426;-77
2022/03/19 06:01:00;;;;;;;84.50;66.10;;;;;;;-3.49;48.86;100215.16;105899;1280;24253;-77
2022/03/19 06:03:29;;;;;;;60.10;54.10;;;;;;;-3.33;48.80;100214.48;105718;1280;22587;-77
2022/03/19 06:05:57;;;;;;;56.00;50.30;;;;;;;-3.17;48.81;100214.34;105663;1279;22762;-77
2022/03/19 06:08:25;;;;;;;54.90;48.30;;;;;;;-3.01;48.77;100212.69;105426;1281;26677;-77
2022/03/19 06:10:52;;;;;;;54.20;48.20;;;;;;;-2.83;48.86;100213.02;105303;1283;25608;-77
2022/03/19 06:13:20;;;;;;;49.40;44.30;;;;;;;-2.66;48.80;100209.34;105662;1280;24463;-77
2022/03/19 06:15:48;;;;;;;52.50;47.10;;;;;;;-2.48;48.70;100209.61;105694;1280;22562;-77
2022/03/19 06:18:17;;;;;;;52.80;47.40;;;;;;;-2.30;48.55;100208.29;105651;1279;24377;-77
2022/03/19 06:20:45;;;;;;;50.40;45.60;;;;;;;-2.12;48.46;100208.86;105647;1280;25465;-77
2022/03/19 06:23:13;;;;;;;49.60;44.60;;;;;;;-1.93;48.46;100209.75;105710;1281;24382;-77
2022/03/19 06:25:41;;;;;;;46.60;41.80;;;;;;;-1.75;48.45;100210.33;105670;1281;24682;-77
2022/03/19 06:28:09;;;;;;;50.30;45.50;;;;;;;-1.59;48.28;100212.27;105908;1280;24448;-78
2022/03/19 06:30:37;;;;;;;47.70;42.90;;;;;;;-1.42;48.35;100213.99;105895;1280;25459;-78
2022/03/19 06:33:06;;;;;;;46.80;42.20;;;;;;;-1.25;48.31;100216.19;105678;1281;22688;-78
2022/03/19 06:38:25;;;;;;;46.00;41.10;;;;;;;-0.89;47.91;100216.70;105736;1281;25325;-77
2022/03/19 06:40:54;;;;;;;43.10;38.80;;;;;;;-0.72;47.61;100221.17;105660;1281;22634;-77
2022/03/19 06:43:22;;;;;;;45.20;40.80;;;;;;;-0.55;47.66;100227.27;105938;1280;22593;-78
2022/03/19 06:45:50;;;;;;;40.20;36.20;;;;;;;-0.39;47.61;100227.27;105923;1280;22696;-78
2022/03/19 06:48:18;;;;;;;40.70;36.70;;;;;;;-0.22;47.48;100227.40;105666;1281;22870;-78
2022/03/19 06:50:48;;;;;;;38.90;34.90;;;;;;;-0.06;47.38;100226.80;105813;1281;24916;-78
2022/03/19 06:53:16;;;;;;;42.80;37.00;;;;;;;0.11;47.18;100223.02;105885;1280;24488;-78
2022/03/19 06:55:44;;;;;;;39.70;35.60;;;;;;;0.25;46.82;100226.23;105995;1281;24240;-78
2022/03/19 06:58:12;;;;;;;43.00;38.70;;;;;;;0.40;46.63;100227.95;105951;1279;24417;-76
2022/03/19 07:00:40;;;;;;;40.20;36.20;;;;;;;0.55;46.47;100226.79;105412;1283;24130;-77
2022/03/19 07:03:08;;;;;;;38.40;34.70;;;;;;;0.70;46.38;100226.65;105861;1281;22554;-75
2022/03/19 07:05:36;;;;;;;37.20;33.30;;;;;;;0.83;46.31;100222.23;105839;1281;22617;-79
2022/03/19 07:08:32;;;;;;;34.70;31.30;;;;;;;0.97;46.00;100221.55;105817;1281;22698;-78
2022/03/19 07:11:00;;;;;;;35.90;32.10;;;;;;;1.12;45.72;100221.31;105965;1280;22743;-77
2022/03/19 07:13:28;;;;;;;38.80;35.20;;;;;;;1.25;45.58;100219.84;105656;1281;23908;-79
2022/03/19 07:15:57;;;;;;;36.80;33.10;;;;;;;1.37;45.04;100222.15;105657;1284;24448;-76
2022/03/19 07:18:25;;;;;;;34.60;30.90;;;;;;;1.50;45.31;100221.15;105866;1281;25540;-79
2022/03/19 07:20:53;;;;;;;38.50;30.70;;;;;;;1.63;44.86;100221.02;106026;1280;22565;-78
2022/03/19 07:23:46;;;;;;;34.30;30.70;;;;;;;1.75;44.72;100224.89;106213;1280;25946;-79
2022/03/19 07:26:14;;;;;;;32.00;28.60;;;;;;;1.89;44.63;100223.91;106018;1281;25231;-77
2022/03/19 07:28:43;;;;;;;31.20;27.70;;;;;;;2.03;44.46;100227.39;106145;1281;24812;-79
2022/03/19 07:31:10;;;;;;;29.60;26.70;;;;;;;2.15;43.61;100224.48;105848;1279;23209;-78
2022/03/19 07:33:38;;;;;;;28.50;25.70;;;;;;;2.27;43.37;100227.58;105833;1280;22558;-77
2022/03/19 07:36:06;;;;;;;29.30;26.40;;;;;;;2.38;43.80;100227.54;105688;1281;22702;-77
2022/03/19 07:38:34;;;;;;;29.50;26.10;;;;;;;2.49;43.79;100228.07;105945;1281;22861;-78
2022/03/19 07:43:48;;;;;;;28.30;25.30;;;;;;;2.77;42.93;100236.28;105818;1281;22853;-76
2022/03/19 07:46:17;;;;;;;28.50;25.30;;;;;;;2.89;42.91;100236.67;105586;1284;22652;-78
2022/03/19 07:48:45;;;;;;;29.70;26.00;;;;;;;2.99;42.73;100242.67;105826;1281;25391;-77
2022/03/19 07:51:13;;;;;;;30.20;27.20;;;;;;;3.09;42.29;100242.55;105438;1281;25552;-79
2022/03/19 07:53:41;;;;;;;32.60;29.20;;;;;;;3.16;42.52;100241.41;105691;1281;22700;-79
2022/03/19 07:56:12;;;;;;;33.60;26.60;;;;;;;3.25;42.35;100244.06;105693;1281;22623;-79
2022/03/19 07:58:40;;;;;;;24.80;22.30;;;;;;;3.33;41.90;100245.33;105916;1280;22541;-80
2022/03/19 08:01:08;;;;;;;35.70;25.30;;;;;;;3.39;40.25;100248.27;105622;1281;22861;-77
2022/03/19 08:03:36;;;;;;;29.10;26.10;;;;;;;3.44;40.12;100245.15;106060;1281;22568;-78
2022/03/19 08:06:05;;;;;;;27.90;24.80;;;;;;;3.46;40.73;100242.95;105947;1281;24014;-78
2022/03/19 08:08:34;;;;;;;29.90;23.50;;;;;;;3.56;40.14;100250.23;105835;1281;25252;-78
2022/03/19 08:11:02;;;;;;;24.80;22.10;;;;;;;3.61;40.12;100247.81;105905;1281;25322;-78
2022/03/19 08:13:30;;;;;;;26.30;23.70;;;;;;;3.70;39.84;100251.55;106021;1280;24459;-78
2022/03/19 08:15:58;;;;;;;29.30;22.60;;;;;;;3.77;38.99;100252.33;105886;1280;25719;-78
2022/03/19 08:18:26;;;;;;;26.50;22.20;;;;;;;3.83;38.45;100254.13;105814;1279;22555;-79
2022/03/19 08:20:55;;;;;;;37.30;20.10;;;;;;;3.86;37.67;100254.55;105806;1281;22694;-79
2022/03/19 08:23:23;;;;;;;22.30;19.70;;;;;;;3.87;36.86;100254.55;105826;1281;25174;-78
2022/03/19 08:25:51;;;;;;;21.10;18.90;;;;;;;3.89;36.93;100263.07;105750;1281;22566;-79
2022/03/19 08:28:19;;;;;;;35.30;21.10;;;;;;;3.93;37.18;100259.19;105732;1281;23253;-76
2022/03/19 08:30:47;;;;;;;22.90;17.00;;;;;;;4.01;36.48;100263.87;105925;1281;22880;-78
2022/03/19 08:33:15;;;;;;;23.50;19.70;;;;;;;4.03;36.47;100268.72;105956;1280;25271;-78
2022/03/19 08:35:43;;;;;;;24.20;21.70;;;;;;;4.10;36.55;100263.05;105661;1281;22576;-79
2022/03/19 08:40:57;;;;;;;25.80;21.50;;;;;;;4.24;35.94;100260.20;105925;1281;22538;-78
2022/03/19 08:43:25;;;;;;;26.70;20.60;;;;;;;4.27;35.28;100259.63;105205;1281;22637;-78
2022/03/19 08:45:53;;;;;;;24.90;22.40;;;;;;;4.28;35.81;100260.05;105954;1280;22792;-78
2022/03/19 08:48:21;;;;;;;24.60;21.90;;;;;;;4.35;35.78;100263.02;105709;1281;22560;-77
2022/03/19 08:50:49;;;;;;;24.80;22.20;;;;;;;4.42;34.94;100262.42;105599;1281;22626;-78
2022/03/19 08:53:17;;;;;;;29.40;21.90;;;;;;;4.48;35.74;100268.21;105815;1280;22556;-78
2022/03/19 08:55:46;;;;;;;26.10;21.00;;;;;;;4.58;35.13;100268.40;105896;1279;22705;-77
2022/03/19 08:58:13;;;;;;;42.80;24.50;;;;;;;4.66;35.02;100271.66;105697;1280;25236;-78
2022/03/19 09:00:41;;;;;;;26.20;23.20;;;;;;;4.69;35.65;100270.08;105896;1279;22740;-78
2022/03/19 09:03:09;;;;;;;25.80;23.00;;;;;;;4.75;34.97;100273.25;105907;1279;22731;-76
2022/03/19 09:05:37;;;;;;;27.30;22.60;;;;;;;4.80;35.42;100271.90;105647;1280;25493;-78
2022/03/19 09:08:05;;;;;;;26.30;22.60;;;;;;;4.84;34.74;100270.13;105986;1280;24397;-78
2022/03/19 09:10:33;;;;;;;25.00;22.10;;;;;;;4.89;34.63;100267.96;105872;1280;23474;-78
2022/03/19 09:13:02;;;;;;;25.00;22.10;;;;;;;4.94;34.47;100264.44;105905;1280;23325;-79
2022/03/19 09:15:30;;;;;;;27.70;22.70;;;;;;;5.03;34.44;100259.80;105908;1279;24097;-80
2022/03/19 09:17:58;;;;;;;24.70;22.00;;;;;;;5.11;34.76;100263.18;105896;1279;22630;-78
2022/03/19 09:20:26;;;;;;;24.50;21.90;;;;;;;5.19;34.19;100258.88;105643;1280;22570;-77
2022/03/19 09:22:54;;;;;;;20.00;18.00;;;;;;;5.28;34.19;100260.10;105898;1280;23187;-78
2022/03/19 09:25:21;;;;;;;33.30;19.40;;;;;;;5.37;33.40;100261.54;105885;1280;23852;-77
2022/03/19 09:27:50;;;;;;;18.70;16.80;;;;;;;5.39;32.86;100256.65;105869;1279;22550;-78
2022/03/19 09:30:18;;;;;;;21.60;19.40;;;;;;;5.41;32.91;100250.71;105887;1279;22576;-78
2022/03/19 09:32:46;;;;;;;24.50;18.00;;;;;;;5.50;32.61;100259.39;105860;1280;22537;-77
2022/03/19 09:35:34;;;;;;;22.60;17.80;;;;;;;5.57;31.41;100259.52;105892;1279;22806;-77
2022/03/19 09:38:03;;;;;;;19.80;17.90;;;;;;;5.57;31.83;100257.56;105897;1279;22702;-77
2022/03/19 09:40:31;;;;;;;26.70;19.40;;;;;;;5.59;32.01;100262.00;105920;1279;22624;-77
2022/03/19 09:42:59;;;;;;;22.60;19.60;;;;;;;5.71;31.42;100258.87;105948;1279;26718;-77
2022/03/19 09:45:28;;;;;;;22.40;18.70;;;;;;;5.79;31.33;100255.56;105655;1280;25449;-78
2022/03/19 09:47:56;;;;;;;24.10;21.50;;;;;;;5.88;31.41;100257.25;105706;1280;25638;-77
2022/03/19 09:50:25;;;;;;;21.80;19.40;;;;;;;5.98;31.49;100257.52;105791;1279;25500;-79
2022/03/19 09:52:55;;;;;;;22.50;19.00;;;;;;;6.05;31.19;100256.61;105937;1280;22639;-78
2022/03/19 09:55:26;;;;;;;21.50;19.00;;;;;;;6.12;31.73;100254.84;105700;1279;22706;-77
2022/03/19 09:57:55;;;;;;;24.80;17.50;;;;;;;6.24;31.69;100254.58;105978;1279;24253;-78
2022/03/19 10:00:26;;;;;;;25.70;18.20;;;;;;;6.36;30.39;100248.84;105987;1279;22763;-77
2022/03/19 10:02:54;;;;;;;26.30;19.30;;;;;;;6.45;30.95;100251.06;105861;1279;22537;-78
2022/03/19 10:10:57;;;;;;;21.60;19.50;;;;;;;6.77;29.65;100257.30;105831;1279;22655;-79
2022/03/19 10:13:25;;;;;;;20.00;17.80;;;;;;;6.86;31.01;100256.88;105591;1280;25439;-78
2022/03/19 10:15:53;;;;;;;18.60;16.40;;;;;;;7.01;30.86;100252.69;105918;1279;22726;-78
2022/03/19 10:18:29;;;;;;;21.30;15.60;;;;;;;7.14;29.75;100255.36;105830;1279;22696;-78
2022/03/19 10:21:02;;;;;;;23.20;18.00;;;;;;;7.18;29.47;100256.02;105841;1279;23018;-78
2022/03/19 10:23:39;;;;;;;17.60;15.80;;;;;;;7.22;29.70;100251.48;105752;1280;24276;-78
2022/03/19 10:26:08;;;;;;;21.30;16.70;;;;;;;7.27;29.05;100251.50;105594;1280;22661;-77
2022/03/19 10:28:36;;;;;;;18.70;15.20;;;;;;;7.35;29.73;100256.73;105401;1281;24081;-77
2022/03/19 10:31:04;;;;;;;15.50;13.50;;;;;;;7.44;28.93;100250.40;105658;1280;25271;-77
2022/03/19 10:33:32;;;;;;;15.70;14.00;;;;;;;7.48;28.96;100249.00;105644;1279;24372;-77
2022/03/19 10:36:09;;;;;;;21.70;15.80;;;;;;;7.57;28.40;100250.28;105668;1279;23266;-77
2022/03/19 10:38:43;;;;;;;18.40;15.90;;;;;;;7.64;28.38;100248.68;105709;1279;25261;-76
2022/03/19 10:41:17;;;;;;;19.90;15.30;;;;;;;7.74;28.49;100257.46;105770;1279;25336;-77
2022/03/19 10:43:47;;;;;;;14.40;12.90;;;;;;;7.81;27.90;100250.95;105717;1279;24281;-78
2022/03/19 10:46:19;;;;;;;15.10;12.90;;;;;;;7.85;27.69;100256.65;106002;1280;25450;-78
2022/03/19 10:48:53;;;;;;;16.30;14.70;;;;;;;7.90;27.65;100246.77;106037;1277;22555;-77
2022/03/19 10:51:20;;;;;;;15.70;14.20;;;;;;;7.95;28.25;100247.82;105434;1280;24255;-77
2022/03/19 10:53:50;;;;;;;17.80;15.10;;;;;;;8.09;28.41;100249.86;105638;1280;22835;-77
2022/03/19 10:56:18;;;;;;;18.50;16.70;;;;;;;8.22;28.16;100253.77;105664;1280;24106;-77
2022/03/19 10:59:01;;;;;;;21.10;17.10;;;;;;;8.31;28.62;100248.05;105620;1279;25279;-77
2022/03/19 11:01:35;;;;;;;20.70;17.30;;;;;;;8.48;28.31;100242.15;105565;1279;22957;-78
2022/03/19 11:04:09;;;;;;;16.50;14.60;;;;;;;8.53;27.71;100240.36;106021;1279;25380;-76
2022/03/19 11:06:42;;;;;;;18.00;16.20;;;;;;;8.54;27.75;100240.11;106058;1279;22834;-77
2022/03/19 11:09:13;;;;;;;15.90;14.30;;;;;;;8.53;27.66;100235.35;106141;1279;22608;-79
2022/03/19 11:11:57;;;;;;;16.50;14.90;;;;;;;8.55;27.32;100240.56;106202;1279;22799;-75
2022/03/19 11:14:28;;;;;;;22.60;17.00;;;;;;;8.53;26.05;100229.23;106160;1280;24177;-78
2022/03/19 11:17:25;;;;;;;19.00;17.10;;;;;;;8.45;26.91;100235.52;106196;1279;22618;-79
2022/03/19 11:20:02;;;;;;;19.90;16.10;;;;;;;8.45;26.99;100234.48;106203;1279;25392;-79
2022/03/19 11:22:39;;;;;;;18.60;16.60;;;;;;;8.49;26.94;100230.23;106016;1281;22874;-79
2022/03/19 11:25:16;;;;;;;21.50;18.50;;;;;;;8.57;27.07;100229.06;106211;1279;22691;-79
2022/03/19 11:27:48;;;;;;;21.80;19.30;;;;;;;8.63;26.62;100224.17;106010;1279;25436;-78
2022/03/19 11:30:27;;;;;;;24.60;19.10;;;;;;;8.73;27.51;100231.48;105824;1279;22560;-79
2022/03/19 11:33:22;;;;;;;24.20;18.20;;;;;;;8.91;27.33;100231.38;106187;1279;22690;-79
2022/03/19 11:36:05;;;;;;;27.60;18.80;;;;;;;9.02;27.48;100233.02;106080;1279;22781;-80
2022/03/19 11:38:50;;;;;;;21.70;19.50;;;;;;;9.08;26.64;100228.16;106084;1279;24252;-79